Hastings, Oklahoma
Current Conditions -  °F | °C
As of 2:35 AM on Sunday 23 Nov 2014 (Local Time) from KDUC Reporting Station
Moderate Fog Moderate Fog  
Wind Chill: 50°   Ceiling: 200
Heat Index: 50°   Visibility: 0.25mi
Dew Point: 50°   Wind: 5mph
Humidity: 100%   Direction: 170°S
Pressure: 29.6"   Gusts: NA
Location:  34.23°N, 98.11°W
Report Text: KDUC 230835Z AUTO 17004KT 1/4SM FG OVC002 10/10 A2960 RMK AO2
Loading
Personal Weather Stations






























Interactive Weather Map New forecast layout! Learn more

10-Day Weather Forecast

Advertisements
Track Severe Weather on mobile